Time;durP1;ratioP1;P1;durP2;ratioP2;P2;SDS_P1;SDS_P2;PMS_P1;PMS_P2;Temp;Humidity;BMP_temperature;BMP_pressure;BME280_temperature;BME280_humidity;BME280_pressure;Samples;Min_cycle;Max_cycle;Signal;HPM_P1;HPM_P2
2022/06/08 00:02:26;;;;;;;4.85;4.15;;;12.90;99.90;;;;;;6149337;23;20108;-84
2022/06/08 00:05:13;;;;;;;4.80;4.40;;;12.90;99.90;;;;;;6148823;23;20409;-83
2022/06/08 00:08:03;;;;;;;6.13;3.70;;;12.90;99.90;;;;;;6129846;23;20040;-82
2022/06/08 00:10:51;;;;;;;5.70;4.55;;;12.90;99.90;;;;;;6148874;23;20064;-83
2022/06/08 00:13:42;;;;;;;6.22;3.85;;;12.90;99.90;;;;;;6151281;23;20037;-85
2022/06/08 00:16:30;;;;;;;7.07;4.10;;;12.90;99.90;;;;;;6148951;23;20029;-82
2022/06/08 00:19:17;;;;;;;4.00;3.70;;;12.90;99.90;;;;;;6151005;23;20049;-83
2022/06/08 00:22:06;;;;;;;5.63;3.53;;;13.00;99.90;;;;;;6151733;23;20196;-83
2022/06/08 00:24:59;;;;;;;6.13;4.18;;;13.00;99.90;;;;;;6149850;23;20290;-83
2022/06/08 00:27:48;;;;;;;5.30;3.75;;;13.00;99.90;;;;;;6151353;23;20029;-83
2022/06/08 00:30:40;;;;;;;12.93;4.15;;;13.00;99.90;;;;;;6130179;23;20100;-84
2022/06/08 00:33:27;;;;;;;5.03;4.23;;;13.00;99.90;;;;;;6150460;23;20301;-83
2022/06/08 00:36:15;;;;;;;4.72;3.75;;;13.00;99.90;;;;;;6156221;23;20105;-83
2022/06/08 00:39:03;;;;;;;4.95;3.92;;;13.00;99.90;;;;;;6164860;23;20025;-84
2022/06/08 00:41:57;;;;;;;4.35;3.80;;;13.00;99.90;;;;;;6141089;23;20040;-83
2022/06/08 00:44:48;;;;;;;5.10;4.03;;;13.00;99.90;;;;;;6142130;23;20099;-83
2022/06/08 00:47:48;;;;;;;6.10;4.10;;;13.00;99.90;;;;;;6164015;23;20021;-84
2022/06/08 00:50:49;;;;;;;4.68;3.97;;;12.90;99.90;;;;;;6158696;23;20135;-82
2022/06/08 00:53:45;;;;;;;6.05;3.75;;;12.90;99.90;;;;;;6161741;23;20036;-83
2022/06/08 00:56:51;;;;;;;6.20;3.90;;;12.90;99.90;;;;;;6141122;23;20060;-83
2022/06/08 00:59:45;;;;;;;3.95;3.53;;;12.90;99.90;;;;;;6161541;23;20033;-83
2022/06/08 01:02:32;;;;;;;8.38;4.05;;;12.80;99.90;;;;;;6159686;23;20075;-83
2022/06/08 01:05:44;;;;;;;8.10;4.03;;;12.80;99.90;;;;;;6150881;23;20162;-83
2022/06/08 01:08:39;;;;;;;7.22;4.10;;;12.80;99.90;;;;;;6131243;23;20075;-82
2022/06/08 01:11:32;;;;;;;5.60;4.13;;;12.70;99.90;;;;;;6128006;23;20128;-83
2022/06/08 01:14:20;;;;;;;7.60;4.53;;;12.80;99.90;;;;;;6149086;23;20049;-84
2022/06/08 01:17:19;;;;;;;5.40;4.20;;;12.80;99.90;;;;;;6149705;23;20059;-84
2022/06/08 01:20:07;;;;;;;7.45;4.18;;;12.70;99.90;;;;;;6153572;23;20040;-83
2022/06/08 01:22:54;;;;;;;7.07;3.90;;;12.70;99.90;;;;;;6130223;23;20029;-83
2022/06/08 01:26:15;;;;;;;11.30;4.25;;;12.70;99.90;;;;;;6151905;23;20086;-84
2022/06/08 01:29:09;;;;;;;11.73;4.40;;;12.60;99.90;;;;;;6149779;23;20029;-83
2022/06/08 01:32:26;;;;;;;5.85;4.07;;;12.60;99.90;;;;;;6149729;23;20416;-83
2022/06/08 01:35:48;;;;;;;5.80;4.10;;;12.60;99.90;;;;;;6128995;23;20037;-84
2022/06/08 01:38:46;;;;;;;5.60;4.10;;;12.50;99.90;;;;;;6130324;23;20026;-82
2022/06/08 01:42:00;;;;;;;8.27;4.45;;;12.50;99.90;;;;;;6128846;23;20029;-83
2022/06/08 01:48:17;;;;;;;8.13;4.30;;;12.40;99.90;;;;;;6149678;23;20033;-83
2022/06/08 01:51:22;;;;;;;7.55;3.83;;;12.40;99.90;;;;;;6149788;23;20126;-84
2022/06/08 01:54:30;;;;;;;6.00;4.07;;;12.40;99.90;;;;;;6152254;23;20025;-83
2022/06/08 01:58:00;;;;;;;4.90;3.92;;;12.40;99.90;;;;;;6149091;23;20106;-83
2022/06/08 02:01:01;;;;;;;8.20;4.25;;;12.40;99.90;;;;;;6150283;23;20025;-83
2022/06/08 02:04:35;;;;;;;3.88;3.47;;;12.40;99.90;;;;;;6129882;23;20060;-84
2022/06/08 02:07:43;;;;;;;5.68;3.83;;;12.30;99.90;;;;;;6152086;23;20026;-83
2022/06/08 02:10:36;;;;;;;6.57;4.40;;;12.30;99.90;;;;;;6152720;23;20082;-83
2022/06/08 02:13:46;;;;;;;6.25;3.70;;;12.30;99.90;;;;;;6150619;23;20091;-83
2022/06/08 02:16:50;;;;;;;8.20;3.53;;;12.30;99.90;;;;;;6152743;23;20032;-83
2022/06/08 02:20:12;;;;;;;5.70;3.80;;;12.20;99.90;;;;;;6166445;23;20086;-82
2022/06/08 02:23:15;;;;;;;3.92;3.50;;;12.20;99.90;;;;;;6165682;23;20021;-82
2022/06/08 02:26:23;;;;;;;6.70;3.50;;;12.20;99.90;;;;;;6163665;23;20087;-81
2022/06/08 02:29:21;;;;;;;9.38;3.70;;;12.10;99.90;;;;;;6166998;23;20093;-80
2022/06/08 02:35:51;;;;;;;6.68;3.63;;;11.90;99.90;;;;;;6166273;23;20120;-81
2022/06/08 02:38:43;;;;;;;7.55;3.28;;;11.90;99.90;;;;;;6168201;22;20040;-81
2022/06/08 02:41:32;;;;;;;4.97;3.17;;;11.90;99.90;;;;;;6173497;22;20058;-82
2022/06/08 02:44:24;;;;;;;5.28;3.75;;;11.90;99.90;;;;;;6162690;23;20116;-81
2022/06/08 02:47:29;;;;;;;9.77;4.00;;;12.00;99.90;;;;;;6163963;23;20105;-83
2022/06/08 02:50:20;;;;;;;7.22;3.20;;;11.80;99.90;;;;;;6154874;23;20045;-82
2022/06/08 02:53:16;;;;;;;9.68;3.67;;;11.80;99.90;;;;;;6153416;23;20034;-82
2022/06/08 02:56:20;;;;;;;10.27;3.35;;;11.80;99.90;;;;;;6150479;23;20044;-83
2022/06/08 02:59:14;;;;;;;9.00;3.08;;;11.70;99.90;;;;;;6149786;23;20040;-82
2022/06/08 03:02:16;;;;;;;7.50;2.90;;;11.70;99.90;;;;;;6150819;23;20154;-81
2022/06/08 03:05:09;;;;;;;8.40;3.42;;;11.70;99.90;;;;;;6149302;23;20075;-83
2022/06/08 03:08:05;;;;;;;3.88;3.03;;;11.70;99.90;;;;;;6147581;23;20406;-82
2022/06/08 03:10:54;;;;;;;10.43;3.10;;;11.60;99.90;;;;;;6151225;23;20022;-82
2022/06/08 03:13:51;;;;;;;5.78;3.10;;;11.60;99.90;;;;;;6129814;23;20060;-83
2022/06/08 03:16:54;;;;;;;7.80;2.85;;;11.60;99.90;;;;;;6152171;23;20056;-83
2022/06/08 03:19:42;;;;;;;7.80;3.40;;;11.60;99.90;;;;;;6152244;23;20029;-82
2022/06/08 03:22:29;;;;;;;8.18;3.28;;;11.50;99.90;;;;;;6152184;23;20029;-82
2022/06/08 03:25:17;;;;;;;13.27;3.05;;;11.50;99.90;;;;;;6129026;23;20029;-82
2022/06/08 03:28:05;;;;;;;10.15;3.63;;;11.50;99.90;;;;;;6152310;23;20030;-82
2022/06/08 03:30:52;;;;;;;5.43;2.65;;;11.50;99.90;;;;;;6151167;23;20052;-83
2022/06/08 03:33:39;;;;;;;5.70;3.05;;;11.60;99.90;;;;;;6152602;23;20026;-83
2022/06/08 03:36:26;;;;;;;8.27;3.10;;;11.60;99.90;;;;;;6150719;23;20059;-83
2022/06/08 03:39:17;;;;;;;8.85;3.00;;;11.60;99.90;;;;;;6150690;23;20044;-84
2022/06/08 03:42:05;;;;;;;5.18;2.78;;;11.70;99.90;;;;;;6150645;23;20029;-83
2022/06/08 03:44:55;;;;;;;8.00;3.00;;;11.80;99.90;;;;;;6151212;23;20079;-83
2022/06/08 03:47:47;;;;;;;4.60;3.13;;;11.90;99.90;;;;;;6150770;23;20069;-82
2022/06/08 03:50:41;;;;;;;5.97;3.08;;;12.00;99.90;;;;;;6151074;23;20044;-81
2022/06/08 03:53:37;;;;;;;6.97;2.70;;;12.00;99.90;;;;;;6152842;23;20437;-82
2022/06/08 03:56:28;;;;;;;10.75;3.13;;;12.00;99.90;;;;;;6150584;23;20124;-83
2022/06/08 03:59:16;;;;;;;7.30;2.97;;;12.10;99.90;;;;;;6155458;23;20021;-81
2022/06/08 04:05:58;;;;;;;10.65;2.70;;;12.10;99.90;;;;;;6152328;23;20021;-83
2022/06/08 04:08:48;;;;;;;6.80;3.00;;;12.10;99.90;;;;;;6128891;23;20029;-84
2022/06/08 04:11:35;;;;;;;9.30;2.90;;;12.20;99.90;;;;;;6129502;23;20040;-82
2022/06/08 04:14:23;;;;;;;9.68;2.83;;;12.20;99.90;;;;;;6131700;23;20146;-82
2022/06/08 04:17:10;;;;;;;11.05;2.83;;;12.20;99.90;;;;;;6131590;23;20116;-83
2022/06/08 04:19:57;;;;;;;10.15;3.42;;;12.30;99.90;;;;;;6153756;23;20125;-82
2022/06/08 04:22:47;;;;;;;6.57;3.10;;;12.20;99.90;;;;;;6151217;23;20056;-83
2022/06/08 04:25:36;;;;;;;7.40;2.83;;;12.20;99.90;;;;;;6130368;23;20045;-83
2022/06/08 04:28:26;;;;;;;7.60;3.13;;;12.20;99.90;;;;;;6131183;23;20025;-84
2022/06/08 04:31:14;;;;;;;9.40;2.38;;;12.10;99.90;;;;;;6153437;23;20033;-83
2022/06/08 04:34:06;;;;;;;8.32;2.70;;;12.20;99.90;;;;;;6153111;23;20512;-82
2022/06/08 04:36:57;;;;;;;9.13;2.80;;;12.20;99.90;;;;;;6131002;23;20021;-83
2022/06/08 04:39:44;;;;;;;11.88;2.65;;;12.20;99.90;;;;;;6152014;23;20408;-82
2022/06/08 04:42:35;;;;;;;7.45;2.38;;;12.20;99.90;;;;;;6151172;23;20104;-83
2022/06/08 04:45:23;;;;;;;9.52;2.45;;;12.20;99.90;;;;;;6153496;23;20026;-83
2022/06/08 04:48:11;;;;;;;5.72;2.63;;;12.30;99.90;;;;;;6148630;23;20097;-82
2022/06/08 04:50:59;;;;;;;4.80;2.92;;;12.40;99.90;;;;;;6129231;23;20069;-83
2022/06/08 04:53:47;;;;;;;6.78;2.60;;;12.40;99.90;;;;;;6130874;23;20037;-83
2022/06/08 04:56:38;;;;;;;5.10;1.90;;;12.50;99.90;;;;;;6133136;23;20026;-87
2022/06/08 04:59:25;;;;;;;7.43;2.10;;;12.50;99.90;;;;;;6154870;23;20044;-90
2022/06/08 05:02:42;;;;;;;6.10;2.70;;;12.60;99.90;;;;;;6153791;23;20026;-89
2022/06/08 05:05:21;;;;;;;8.32;2.25;;;12.70;99.90;;;;;;6154610;23;20038;-88
2022/06/08 05:08:09;;;;;;;9.70;2.20;;;12.80;99.90;;;;;;6131939;23;20037;-87
2022/06/08 05:10:57;;;;;;;11.93;2.60;;;12.90;99.90;;;;;;6157116;23;20026;-86
2022/06/08 05:13:47;;;;;;;7.70;2.00;;;12.90;99.90;;;;;;6132615;23;20025;-88
2022/06/08 05:16:35;;;;;;;7.88;2.40;;;12.90;99.90;;;;;;6150735;23;20077;-83
2022/06/08 05:19:23;;;;;;;8.82;2.30;;;12.90;99.90;;;;;;6151058;23;20021;-86
2022/06/08 05:22:10;;;;;;;6.68;1.90;;;12.90;99.90;;;;;;6151389;23;20140;-84
2022/06/08 05:24:57;;;;;;;8.48;3.05;;;12.90;99.90;;;;;;6150992;23;20014;-85
2022/06/08 05:27:47;;;;;;;8.43;2.30;;;12.90;99.90;;;;;;6147498;23;20030;-83
2022/06/08 05:30:35;;;;;;;4.70;1.98;;;12.80;99.90;;;;;;6149542;23;20079;-84
2022/06/08 05:33:26;;;;;;;6.22;2.13;;;12.80;99.90;;;;;;6127761;23;20123;-87
2022/06/08 05:36:16;;;;;;;7.80;1.75;;;12.90;99.90;;;;;;6148859;23;20037;-84
2022/06/08 05:39:03;;;;;;;8.35;2.38;;;12.90;99.90;;;;;;6149215;23;20118;-85
2022/06/08 05:41:55;;;;;;;7.82;2.10;;;13.00;99.90;;;;;;6128041;23;20429;-85
2022/06/08 05:44:42;;;;;;;7.90;2.20;;;13.00;99.90;;;;;;6150170;23;20040;-86
2022/06/08 05:47:32;;;;;;;6.85;2.40;;;13.10;99.90;;;;;;6127974;23;20241;-86
2022/06/08 05:50:20;;;;;;;8.68;3.10;;;13.10;99.90;;;;;;6145631;23;20122;-83
2022/06/08 05:53:13;;;;;;;5.55;2.00;;;13.10;99.90;;;;;;6147343;23;20321;-85
2022/06/08 05:56:02;;;;;;;4.20;1.77;;;13.10;99.90;;;;;;6147338;23;20389;-84
2022/06/08 05:58:49;;;;;;;8.05;2.45;;;13.10;99.90;;;;;;6149703;23;20446;-85
2022/06/08 06:01:43;;;;;;;6.70;2.35;;;13.10;99.90;;;;;;6149879;23;20025;-85
2022/06/08 06:04:33;;;;;;;6.88;2.30;;;13.10;99.90;;;;;;6150102;23;20053;-84
2022/06/08 06:07:20;;;;;;;6.13;2.38;;;13.20;99.90;;;;;;6127504;23;20044;-84
2022/06/08 06:10:08;;;;;;;6.80;2.60;;;13.30;99.90;;;;;;6129436;23;20556;-85
2022/06/08 06:12:58;;;;;;;7.82;2.28;;;13.40;99.90;;;;;;6148720;23;20032;-84
2022/06/08 06:15:50;;;;;;;5.78;2.03;;;13.40;99.90;;;;;;6150333;23;20021;-85
2022/06/08 06:18:37;;;;;;;6.80;1.90;;;13.40;99.90;;;;;;6150559;23;20114;-85
2022/06/08 06:21:25;;;;;;;7.00;2.63;;;13.40;99.90;;;;;;6148744;23;20685;-83
2022/06/08 06:24:12;;;;;;;12.02;2.33;;;13.40;99.90;;;;;;6148113;23;20032;-84
2022/06/08 06:27:06;;;;;;;7.88;2.00;;;13.40;99.90;;;;;;6150325;23;20030;-83
2022/06/08 06:29:58;;;;;;;5.53;2.00;;;13.40;99.90;;;;;;6149487;23;20030;-84
2022/06/08 06:32:51;;;;;;;8.15;1.75;;;13.50;99.90;;;;;;6149718;23;20048;-83
2022/06/08 06:35:42;;;;;;;7.80;2.00;;;13.50;99.90;;;;;;6149563;23;20097;-84
2022/06/08 06:38:32;;;;;;;7.82;1.92;;;13.50;99.90;;;;;;6128106;23;20082;-85
2022/06/08 06:41:22;;;;;;;7.75;2.47;;;13.60;99.90;;;;;;6127259;23;20030;-84
2022/06/08 06:44:11;;;;;;;7.15;2.20;;;13.70;99.90;;;;;;6126886;23;20040;-85
2022/06/08 06:47:01;;;;;;;7.97;2.10;;;13.80;99.90;;;;;;6150210;23;20025;-87
2022/06/08 06:49:49;;;;;;;8.07;2.15;;;13.80;99.90;;;;;;6148633;23;20025;-84
2022/06/08 06:52:37;;;;;;;5.18;2.78;;;14.00;99.90;;;;;;6128923;23;20025;-86
2022/06/08 06:55:30;;;;;;;6.38;1.88;;;14.10;99.90;;;;;;6149186;23;20022;-88
2022/06/08 06:58:20;;;;;;;5.72;1.67;;;14.10;99.90;;;;;;6148315;23;20060;-86
2022/06/08 07:01:11;;;;;;;5.80;2.20;;;14.20;99.90;;;;;;6148610;23;20021;-85
2022/06/08 07:03:58;;;;;;;3.85;1.77;;;14.30;99.90;;;;;;6129374;23;20385;-84
2022/06/08 07:06:48;;;;;;;9.70;2.78;;;14.30;99.90;;;;;;6149100;23;20029;-86
2022/06/08 07:09:35;;;;;;;8.63;1.80;;;14.40;99.90;;;;;;6128561;23;20321;-85
2022/06/08 07:12:23;;;;;;;7.20;1.85;;;14.40;99.90;;;;;;6151847;23;20455;-88
2022/06/08 07:15:19;;;;;;;9.43;2.25;;;14.60;99.90;;;;;;6146985;23;20029;-87
2022/06/08 07:18:09;;;;;;;7.68;2.00;;;14.60;99.90;;;;;;6147746;23;20035;-86
2022/06/08 07:20:57;;;;;;;4.93;1.88;;;14.80;99.90;;;;;;6149472;23;20025;-88
2022/06/08 07:23:45;;;;;;;10.00;2.33;;;15.00;99.90;;;;;;6150273;23;20126;-87
2022/06/08 07:26:33;;;;;;;4.95;1.70;;;15.10;99.90;;;;;;6148361;23;20057;-89
2022/06/08 07:29:20;;;;;;;6.43;1.67;;;15.20;99.90;;;;;;6147846;23;20029;-86
2022/06/08 07:32:07;;;;;;;5.15;1.63;;;15.30;99.90;;;;;;6128280;23;20341;-89
2022/06/08 07:34:55;;;;;;;5.03;1.45;;;15.50;99.90;;;;;;6127962;23;20078;-86
2022/06/08 07:37:42;;;;;;;8.60;1.88;;;15.60;99.90;;;;;;6126808;23;20446;-88
2022/06/08 07:40:34;;;;;;;3.75;1.38;;;16.10;99.90;;;;;;6150218;23;20420;-87
2022/06/08 07:43:22;;;;;;;6.43;1.90;;;16.80;99.90;;;;;;6147577;23;20045;-90
2022/06/08 07:46:10;;;;;;;4.43;1.70;;;17.20;99.90;;;;;;6148973;23;20077;-83
2022/06/08 07:52:16;;;;;;;6.50;1.50;;;18.80;99.90;;;;;;6148907;23;20022;-87
2022/06/08 07:55:03;;;;;;;4.28;1.25;;;19.10;99.90;;;;;;6127610;23;20026;-90
2022/06/08 07:57:51;;;;;;;6.63;1.25;;;18.80;99.90;;;;;;6150054;23;20029;-83
2022/06/08 08:00:46;;;;;;;8.25;1.75;;;18.80;99.90;;;;;;6132441;23;20117;-84
2022/06/08 08:03:34;;;;;;;3.20;1.42;;;19.10;99.90;;;;;;6128283;23;20057;-85
2022/06/08 08:06:22;;;;;;;6.25;1.48;;;19.30;99.90;;;;;;6130505;23;20037;-85
2022/06/08 08:09:20;;;;;;;5.28;1.55;;;19.10;99.90;;;;;;6148825;23;20030;-82
2022/06/08 08:12:10;;;;;;;5.75;1.50;;;19.50;99.90;;;;;;6147943;23;20026;-86
2022/06/08 08:14:57;;;;;;;6.82;1.70;;;19.90;99.90;;;;;;6151067;23;20025;-86
2022/06/08 08:17:45;;;;;;;8.40;1.13;;;20.00;99.90;;;;;;6150914;23;20022;-82
2022/06/08 08:20:34;;;;;;;6.72;1.27;;;19.80;99.90;;;;;;6150394;23;20273;-84
2022/06/08 08:23:23;;;;;;;7.47;1.30;;;20.30;99.20;;;;;;6149300;23;20026;-85
2022/06/08 08:26:11;;;;;;;4.00;1.15;;;20.80;98.70;;;;;;6127688;23;20022;-85
2022/06/08 08:28:58;;;;;;;8.40;1.65;;;21.30;98.30;;;;;;6155409;23;20025;-83
2022/06/08 08:31:45;;;;;;;4.88;1.30;;;21.40;96.10;;;;;;6131866;23;20029;-84
2022/06/08 08:34:35;;;;;;;4.15;1.50;;;21.30;92.70;;;;;;6157104;23;20032;-85
2022/06/08 08:37:23;;;;;;;6.80;1.48;;;21.40;94.40;;;;;;6157435;23;20043;-84
2022/06/08 08:40:48;;;;;;;5.72;1.42;;;21.20;93.30;;;;;;6153272;23;20083;-85
2022/06/08 08:43:38;;;;;;;5.28;1.55;;;21.30;93.30;;;;;;6153056;23;20063;-86
2022/06/08 08:46:34;;;;;;;4.93;1.00;;;21.40;93.00;;;;;;6150652;23;20079;-85
2022/06/08 08:49:26;;;;;;;6.38;1.40;;;21.40;93.90;;;;;;6131659;23;20089;-84
2022/06/08 08:52:41;;;;;;;5.75;1.30;;;21.70;91.80;;;;;;6129725;23;20159;-84
2022/06/08 08:55:56;;;;;;;3.03;1.25;;;21.00;91.80;;;;;;6150212;23;20136;-87
2022/06/08 08:58:45;;;;;;;6.35;1.48;;;20.70;92.90;;;;;;6127940;23;20086;-84
2022/06/08 09:01:37;;;;;;;5.60;1.10;;;20.80;91.80;;;;;;6128048;23;20025;-86
2022/06/08 09:04:40;;;;;;;3.95;1.00;;;20.90;92.50;;;;;;6128416;23;20033;-84
2022/06/08 09:07:31;;;;;;;5.47;1.20;;;21.30;91.60;;;;;;6129185;23;20049;-87
2022/06/08 09:10:24;;;;;;;3.15;1.17;;;21.80;91.00;;;;;;6152275;23;20078;-84
2022/06/08 09:13:25;;;;;;;5.18;1.20;;;21.80;89.20;;;;;;6151500;23;20056;-84
2022/06/08 09:16:40;;;;;;;6.88;1.88;;;21.80;88.10;;;;;;6149922;23;20021;-85
2022/06/08 09:19:36;;;;;;;5.13;1.20;;;21.80;85.70;;;;;;6149392;23;20037;-84
2022/06/08 09:22:29;;;;;;;4.32;1.38;;;21.50;84.30;;;;;;6149192;23;20285;-85
2022/06/08 09:25:34;;;;;;;5.63;1.30;;;22.20;89.20;;;;;;6129143;23;20337;-84
2022/06/08 09:28:29;;;;;;;3.83;1.00;;;23.10;82.80;;;;;;6149826;23;20048;-84
2022/06/08 09:31:26;;;;;;;4.22;1.02;;;23.10;83.10;;;;;;6129800;23;20025;-84
2022/06/08 09:34:33;;;;;;;4.32;1.40;;;23.10;76.80;;;;;;6128887;23;20036;-82
2022/06/08 09:37:24;;;;;;;3.70;1.25;;;22.90;77.70;;;;;;6149264;23;20356;-84
2022/06/08 09:40:37;;;;;;;5.47;1.30;;;23.10;76.50;;;;;;6148801;23;20079;-85
2022/06/08 09:43:31;;;;;;;2.90;1.20;;;22.80;76.50;;;;;;6149050;23;20310;-84
2022/06/08 09:54:02;;;;;;;4.27;1.40;;;22.10;79.80;;;;;;6149150;23;20026;-84
2022/06/08 09:56:50;;;;;;;4.82;1.10;;;22.60;77.40;;;;;;6129294;23;20032;-83
2022/06/08 10:00:02;;;;;;;4.97;1.20;;;23.00;79.50;;;;;;6151526;23;20116;-85
2022/06/08 10:03:20;;;;;;;4.32;1.20;;;22.40;78.90;;;;;;6150069;23;20361;-86
2022/06/08 10:06:43;;;;;;;7.45;1.40;;;21.80;81.90;;;;;;6131200;23;20026;-83
2022/06/08 10:09:55;;;;;;;3.42;1.40;;;21.40;82.20;;;;;;6148898;23;20033;-85
2022/06/08 10:13:00;;;;;;;4.47;1.10;;;21.90;84.50;;;;;;6149844;23;20025;-85
2022/06/08 10:16:01;;;;;;;4.50;1.08;;;23.20;74.70;;;;;;6154373;23;20056;-84
2022/06/08 10:19:00;;;;;;;2.92;1.00;;;24.40;72.50;;;;;;6149311;23;20033;-83
2022/06/08 10:21:49;;;;;;;2.92;0.75;;;24.90;67.20;;;;;;6148196;23;20037;-86
2022/06/08 10:24:53;;;;;;;5.40;1.00;;;24.60;60.20;;;;;;6148291;23;20098;-84
2022/06/08 10:27:46;;;;;;;3.45;0.90;;;24.60;60.20;;;;;;6149429;23;20029;-85
2022/06/08 10:30:57;;;;;;;2.20;0.70;;;25.00;58.70;;;;;;6128249;23;20029;-85
2022/06/08 10:34:12;;;;;;;2.33;0.65;;;25.20;57.00;;;;;;6151479;23;20021;-84
2022/06/08 10:37:15;;;;;;;4.78;1.00;;;26.20;56.20;;;;;;6127127;23;20117;-84
2022/06/08 10:40:13;;;;;;;6.25;1.17;;;26.10;56.20;;;;;;6149185;23;20035;-84
2022/06/08 10:43:03;;;;;;;1.48;0.65;;;25.60;50.80;;;;;;6131330;23;20036;-85
2022/06/08 10:45:55;;;;;;;3.08;0.90;;;24.90;55.00;;;;;;6127826;23;20040;-85
2022/06/08 10:48:47;;;;;;;2.80;0.70;;;24.90;52.70;;;;;;6148976;23;20025;-83
2022/06/08 10:51:37;;;;;;;4.60;1.00;;;25.30;53.60;;;;;;6127304;23;20294;-84
2022/06/08 10:55:11;;;;;;;7.47;1.25;;;25.20;52.00;;;;;;6127467;23;20052;-84
2022/06/08 10:57:50;;;;;;;3.00;0.50;;;25.50;52.80;;;;;;6149483;23;20030;-85
2022/06/08 11:00:58;;;;;;;4.38;0.80;;;26.20;52.70;;;;;;6147978;23;20366;-84
2022/06/08 11:03:50;;;;;;;2.85;0.98;;;27.10;47.50;;;;;;6129157;23;20044;-85
2022/06/08 11:07:12;;;;;;;3.53;0.70;;;26.40;48.20;;;;;;6148960;23;20102;-84
2022/06/08 11:10:03;;;;;;;3.25;0.75;;;25.40;46.80;;;;;;6147577;23;20029;-85
2022/06/08 11:13:11;;;;;;;1.58;0.55;;;25.00;49.50;;;;;;6134653;23;20026;-85
2022/06/08 11:16:03;;;;;;;1.67;0.65;;;24.60;50.00;;;;;;6126992;23;20305;-85
2022/06/08 11:19:14;;;;;;;1.67;0.63;;;25.10;48.70;;;;;;6149657;23;20032;-84
2022/06/08 11:22:15;;;;;;;2.13;0.80;;;25.70;47.20;;;;;;6148307;23;20025;-85
2022/06/08 11:25:10;;;;;;;2.05;0.85;;;24.70;48.60;;;;;;6150516;23;20026;-83
2022/06/08 11:28:25;;;;;;;1.75;0.70;;;24.10;49.30;;;;;;6149209;23;20033;-84
2022/06/08 11:31:28;;;;;;;3.17;0.65;;;24.40;52.40;;;;;;6148771;23;20098;-89
2022/06/08 11:34:21;;;;;;;3.13;0.65;;;24.50;48.30;;;;;;6150041;23;20026;-86
2022/06/08 11:37:16;;;;;;;3.10;0.85;;;24.30;50.10;;;;;;6149614;23;20029;-86
2022/06/08 11:40:28;;;;;;;3.47;0.70;;;24.70;49.10;;;;;;6149680;23;20320;-83
2022/06/08 11:43:36;;;;;;;4.30;0.65;;;25.90;49.40;;;;;;6150081;23;20048;-86
2022/06/08 11:46:48;;;;;;;3.05;0.90;;;25.90;47.90;;;;;;6130621;23;20099;-85
2022/06/08 11:49:54;;;;;;;1.83;0.60;;;26.00;49.70;;;;;;6150890;23;20040;-84
2022/06/08 11:52:45;;;;;;;4.60;0.68;;;26.10;47.00;;;;;;6151005;23;20034;-85
2022/06/08 11:56:06;;;;;;;2.50;0.65;;;26.30;47.50;;;;;;6129181;23;20035;-83
2022/06/08 11:58:57;;;;;;;4.63;0.88;;;26.00;46.40;;;;;;6150469;23;20026;-84
2022/06/08 12:01:52;;;;;;;2.33;0.90;;;26.30;46.60;;;;;;6151087;23;20022;-85
2022/06/08 12:04:43;;;;;;;1.90;0.85;;;25.70;48.70;;;;;;6152654;23;20030;-84
2022/06/08 12:07:35;;;;;;;5.55;0.50;;;24.80;50.30;;;;;;6153493;23;20392;-84
2022/06/08 12:10:29;;;;;;;2.35;0.90;;;24.70;50.50;;;;;;6130749;23;20036;-84
2022/06/08 12:13:21;;;;;;;2.30;0.80;;;24.60;49.70;;;;;;6154177;23;20025;-86
2022/06/08 12:16:49;;;;;;;1.67;0.65;;;24.40;48.90;;;;;;6131195;23;20049;-86
2022/06/08 12:19:51;;;;;;;3.03;0.70;;;24.20;50.10;;;;;;6133160;23;20030;-85
2022/06/08 12:22:39;;;;;;;3.15;0.80;;;25.00;48.60;;;;;;6152993;23;20466;-83
2022/06/08 12:25:30;;;;;;;7.47;3.50;;;25.60;49.90;;;;;;6154316;23;20091;-84
2022/06/08 12:28:21;;;;;;;8.40;3.88;;;24.40;49.20;;;;;;6152780;23;20052;-83
2022/06/08 12:31:27;;;;;;;3.30;1.02;;;23.90;51.00;;;;;;6152974;23;20037;-85
2022/06/08 12:34:38;;;;;;;3.35;0.80;;;24.10;53.20;;;;;;6152200;23;20109;-84
2022/06/08 12:37:29;;;;;;;1.48;0.60;;;23.90;51.90;;;;;;6153909;23;20093;-85
2022/06/08 12:40:16;;;;;;;4.28;1.00;;;24.10;50.80;;;;;;6151685;23;20022;-83
2022/06/08 12:43:06;;;;;;;3.88;0.82;;;24.40;51.40;;;;;;6129133;23;20026;-84
2022/06/08 12:46:05;;;;;;;2.40;0.93;;;24.50;50.70;;;;;;6150996;23;20393;-84
2022/06/08 12:48:59;;;;;;;3.75;0.75;;;24.90;50.10;;;;;;6130319;23;20033;-85
2022/06/08 12:51:51;;;;;;;2.30;0.70;;;25.10;50.20;;;;;;6128786;23;20025;-84
2022/06/08 12:54:39;;;;;;;3.80;0.93;;;24.50;49.30;;;;;;6130014;23;20026;-83
2022/06/08 12:57:31;;;;;;;3.42;0.82;;;23.70;52.50;;;;;;6151509;23;20033;-83
2022/06/08 13:00:24;;;;;;;2.03;0.70;;;23.20;52.90;;;;;;6149298;23;20033;-83
2022/06/08 13:03:18;;;;;;;3.35;0.93;;;23.00;53.20;;;;;;6150864;23;20110;-83
2022/06/08 13:06:07;;;;;;;2.35;0.70;;;23.00;55.20;;;;;;6127585;23;20052;-86
2022/06/08 13:08:57;;;;;;;3.42;0.70;;;23.00;57.40;;;;;;6127522;23;20037;-85
2022/06/08 13:11:54;;;;;;;1.60;0.70;;;22.90;54.80;;;;;;6127860;23;20171;-86
2022/06/08 13:14:41;;;;;;;3.50;0.70;;;22.90;55.50;;;;;;6151145;23;20285;-83
2022/06/08 13:17:29;;;;;;;1.23;0.73;;;22.90;56.40;;;;;;6127946;23;20083;-83
2022/06/08 13:20:27;;;;;;;2.30;0.60;;;23.10;55.50;;;;;;6149250;23;20096;-84
2022/06/08 13:23:17;;;;;;;2.33;0.82;;;23.10;56.10;;;;;;6129005;23;20025;-83
2022/06/08 13:26:11;;;;;;;1.55;0.73;;;23.70;54.20;;;;;;6127797;23;20309;-85
2022/06/08 13:28:58;;;;;;;4.03;0.90;;;23.70;54.40;;;;;;6129411;23;20029;-83
2022/06/08 13:31:46;;;;;;;2.60;0.73;;;23.80;53.60;;;;;;6130824;23;20029;-84
2022/06/08 13:34:34;;;;;;;2.40;0.60;;;23.80;54.30;;;;;;6152386;23;20021;-87
2022/06/08 13:37:27;;;;;;;2.42;0.75;;;23.50;52.90;;;;;;6132466;23;20040;-92
2022/06/08 13:40:22;;;;;;;2.55;0.70;;;23.40;54.60;;;;;;6154620;23;20036;-90
2022/06/08 13:43:13;;;;;;;2.28;0.70;;;23.40;53.40;;;;;;6135214;23;20049;-90
2022/06/08 13:46:01;;;;;;;3.63;0.80;;;23.00;54.50;;;;;;6135846;23;20025;-89
2022/06/08 13:48:51;;;;;;;1.10;0.50;;;23.20;55.10;;;;;;6135596;23;20032;-90
2022/06/08 13:51:39;;;;;;;6.57;1.20;;;23.00;55.40;;;;;;6156171;23;20059;-88
2022/06/08 13:54:29;;;;;;;4.47;0.77;;;22.80;56.50;;;;;;6155377;23;20021;-89
2022/06/08 13:57:17;;;;;;;2.95;1.00;;;22.50;56.70;;;;;;6155715;23;20021;-91
2022/06/08 14:00:06;;;;;;;3.97;1.00;;;22.00;58.60;;;;;;6136768;23;20371;-88
2022/06/08 14:03:03;;;;;;;15.27;1.45;;;21.70;58.50;;;;;;6156271;23;20163;-85
2022/06/08 14:15:24;;;;;;;5.03;0.90;;;21.10;60.60;;;;;;6155305;23;20040;-90
2022/06/08 14:18:19;;;;;;;6.13;0.80;;;20.90;61.90;;;;;;6156862;23;20036;-90
2022/06/08 14:21:07;;;;;;;4.50;1.00;;;20.70;61.40;;;;;;6157528;23;20021;-91
2022/06/08 14:23:59;;;;;;;4.45;0.98;;;20.60;62.80;;;;;;6156418;23;20324;-88
2022/06/08 14:26:47;;;;;;;3.20;1.02;;;20.50;64.10;;;;;;6155183;23;20026;-89
2022/06/08 14:29:42;;;;;;;6.97;1.40;;;20.40;66.80;;;;;;6158059;23;20025;-89
2022/06/08 14:32:33;;;;;;;2.92;0.90;;;20.30;69.40;;;;;;6156519;23;20031;-90
2022/06/08 14:35:48;;;;;;;6.55;1.33;;;20.00;72.70;;;;;;6157355;23;20084;-92
2022/06/08 14:38:55;;;;;;;5.18;1.25;;;19.70;77.40;;;;;;6154739;23;20079;-89
2022/06/08 14:41:44;;;;;;;4.32;1.30;;;19.40;81.50;;;;;;6134759;23;20032;-85
2022/06/08 14:44:32;;;;;;;3.90;1.17;;;19.30;84.80;;;;;;6133968;23;20033;-87
2022/06/08 14:47:27;;;;;;;6.85;1.25;;;19.30;90.30;;;;;;6133194;23;20030;-89
2022/06/08 14:50:18;;;;;;;2.10;1.00;;;19.30;88.20;;;;;;6153313;23;20026;-87
2022/06/08 14:53:09;;;;;;;6.40;1.17;;;19.40;82.50;;;;;;6157336;23;20037;-91
2022/06/08 14:59:17;;;;;;;3.28;1.08;;;19.50;77.90;;;;;;6163546;23;20025;-86
2022/06/08 15:02:16;;;;;;;3.08;0.90;;;19.40;70.30;;;;;;6138555;23;20028;-87
2022/06/08 15:05:07;;;;;;;5.38;1.15;;;19.30;68.00;;;;;;6133412;23;20129;-88
2022/06/08 15:07:57;;;;;;;2.20;0.95;;;19.50;66.80;;;;;;6154519;23;20022;-89
2022/06/08 15:13:56;;;;;;;4.90;0.80;;;19.60;66.60;;;;;;6154970;23;20033;-87
2022/06/08 15:16:43;;;;;;;3.17;1.05;;;19.70;67.20;;;;;;6160182;23;20044;-88
2022/06/08 15:19:35;;;;;;;4.55;1.00;;;19.50;68.80;;;;;;6156147;23;20432;-87
2022/06/08 15:22:28;;;;;;;4.13;1.00;;;19.30;71.10;;;;;;6154953;23;20022;-84
2022/06/08 15:25:16;;;;;;;;;;;18.70;77.10;;;;;;6154291;23;20033;-87
2022/06/08 15:28:13;;;;;;;7.43;1.67;;;18.40;81.40;;;;;;6156693;23;19931;-84
2022/06/08 15:31:00;;;;;;;6.18;1.45;;;18.20;85.60;;;;;;6155658;23;20048;-88
2022/06/08 15:33:48;;;;;;;8.88;1.52;;;18.00;89.80;;;;;;6154695;23;20120;-87
2022/06/08 15:36:35;;;;;;;5.72;1.70;;;17.80;93.70;;;;;;6153202;23;20022;-88
2022/06/08 15:39:32;;;;;;;6.00;1.90;;;17.40;97.00;;;;;;6152544;23;20052;-87
2022/06/08 15:42:22;;;;;;;4.28;1.58;;;16.90;99.90;;;;;;6152022;23;20037;-85
2022/06/08 15:45:11;;;;;;;6.18;1.70;;;16.50;99.90;;;;;;6152983;23;20091;-87